LZIB/BTS METAR and TAF weather

Enter ICAO airport designator
Station Type Date Time Source
LZIB METAR 2019/04/26 04:30 UTC NOAA

LZIB 260430Z 03002KT CAVOK 11/08 Q1011 NOSIG


Station Type Date Time Source
LZIB Decoded METAR 2019/04/26 04:30 UTC NOAA

Bratislava Ivanka, Slovakia (LZIB) 48-12N 017-12E 142M
Apr 26, 2019 - 12:30 AM EDT / 2019.04.26 0430 UTC
Wind: from the NNE (030 degrees) at 2 MPH (2 KT):0
Visibility: greater than 7 mile(s):0
Temperature: 51 F (11 C)
Dew Point: 46 F (8 C)
Relative Humidity: 81%
Pressure (altimeter): 29.85 in. Hg (1011 hPa)
ob: LZIB 260430Z 03002KT CAVOK 11/08 Q1011 NOSIG
cycle: 4

Station Type Date Time Source
LZIB TAF 2019/04/26 00:35 UTC NOAA

TAF LZIB 252300Z 2600/2700 20012KT CAVOK
TEMPO 2600/2605 20006KT
TEMPO 2608/2617 18020G35KT

Example: see airport list